sensor_id;sensor_type;location;lat;lon;timestamp;P1;durP1;ratioP1;P2;durP2;ratioP2
53545;SDS011;39432;51.902;10.844;2024-01-10T00:01:49;20.67;;;13.57;;
53545;SDS011;39432;51.902;10.844;2024-01-10T00:04:20;24.65;;;14.27;;
53545;SDS011;39432;51.902;10.844;2024-01-10T00:06:50;23.38;;;13.85;;
53545;SDS011;39432;51.902;10.844;2024-01-10T00:09:23;20.55;;;13.57;;
53545;SDS011;39432;51.902;10.844;2024-01-10T00:11:53;19.02;;;11.52;;
53545;SDS011;39432;51.902;10.844;2024-01-10T00:14:22;19.27;;;12.07;;
53545;SDS011;39432;51.902;10.844;2024-01-10T00:16:52;18.15;;;12.13;;
53545;SDS011;39432;51.902;10.844;2024-01-10T00:19:22;16.67;;;11.60;;
53545;SDS011;39432;51.902;10.844;2024-01-10T00:21:52;18.38;;;12.15;;
53545;SDS011;39432;51.902;10.844;2024-01-10T00:24:25;25.63;;;12.57;;
53545;SDS011;39432;51.902;10.844;2024-01-10T00:26:55;21.98;;;12.82;;
53545;SDS011;39432;51.902;10.844;2024-01-10T00:29:24;20.45;;;12.25;;
53545;SDS011;39432;51.902;10.844;2024-01-10T00:31:54;19.13;;;12.13;;
53545;SDS011;39432;51.902;10.844;2024-01-10T00:34:26;25.08;;;12.43;;
53545;SDS011;39432;51.902;10.844;2024-01-10T00:36:56;17.80;;;11.27;;
53545;SDS011;39432;51.902;10.844;2024-01-10T00:39:28;23.23;;;11.90;;
53545;SDS011;39432;51.902;10.844;2024-01-10T00:41:58;20.13;;;11.57;;
53545;SDS011;39432;51.902;10.844;2024-01-10T00:44:28;16.05;;;11.13;;
53545;SDS011;39432;51.902;10.844;2024-01-10T00:46:58;18.40;;;11.05;;
53545;SDS011;39432;51.902;10.844;2024-01-10T00:49:28;19.50;;;12.10;;
53545;SDS011;39432;51.902;10.844;2024-01-10T00:51:55;19.83;;;12.30;;
53545;SDS011;39432;51.902;10.844;2024-01-10T00:54:25;18.35;;;11.32;;
53545;SDS011;39432;51.902;10.844;2024-01-10T00:56:57;17.08;;;11.07;;
53545;SDS011;39432;51.902;10.844;2024-01-10T00:59:27;21.58;;;11.48;;
53545;SDS011;39432;51.902;10.844;2024-01-10T01:01:57;18.35;;;11.27;;
53545;SDS011;39432;51.902;10.844;2024-01-10T01:04:27;16.95;;;10.90;;
53545;SDS011;39432;51.902;10.844;2024-01-10T01:06:57;18.20;;;11.20;;
53545;SDS011;39432;51.902;10.844;2024-01-10T01:09:29;19.55;;;10.07;;
53545;SDS011;39432;51.902;10.844;2024-01-10T01:12:02;23.17;;;11.48;;
53545;SDS011;39432;51.902;10.844;2024-01-10T01:14:32;23.42;;;12.25;;
53545;SDS011;39432;51.902;10.844;2024-01-10T01:17:02;17.52;;;11.43;;
53545;SDS011;39432;51.902;10.844;2024-01-10T01:19:32;17.45;;;11.68;;
53545;SDS011;39432;51.902;10.844;2024-01-10T01:22:03;21.48;;;12.38;;
53545;SDS011;39432;51.902;10.844;2024-01-10T01:24:32;17.63;;;11.48;;
53545;SDS011;39432;51.902;10.844;2024-01-10T01:27:05;23.15;;;13.05;;
53545;SDS011;39432;51.902;10.844;2024-01-10T01:29:35;20.33;;;12.70;;
53545;SDS011;39432;51.902;10.844;2024-01-10T01:32:05;19.23;;;12.23;;
53545;SDS011;39432;51.902;10.844;2024-01-10T01:34:35;17.85;;;12.13;;
53545;SDS011;39432;51.902;10.844;2024-01-10T01:37:05;20.90;;;11.82;;
53545;SDS011;39432;51.902;10.844;2024-01-10T01:39:35;22.42;;;12.65;;
53545;SDS011;39432;51.902;10.844;2024-01-10T01:42:07;17.58;;;11.93;;
53545;SDS011;39432;51.902;10.844;2024-01-10T01:44:37;23.08;;;12.88;;
53545;SDS011;39432;51.902;10.844;2024-01-10T01:47:07;21.65;;;12.13;;
53545;SDS011;39432;51.902;10.844;2024-01-10T01:49:38;20.77;;;12.55;;
53545;SDS011;39432;51.902;10.844;2024-01-10T01:52:09;17.75;;;12.20;;
53545;SDS011;39432;51.902;10.844;2024-01-10T01:54:40;19.33;;;12.20;;
53545;SDS011;39432;51.902;10.844;2024-01-10T01:57:12;21.13;;;13.20;;
53545;SDS011;39432;51.902;10.844;2024-01-10T01:59:43;24.08;;;12.65;;
53545;SDS011;39432;51.902;10.844;2024-01-10T02:02:13;20.13;;;13.50;;
53545;SDS011;39432;51.902;10.844;2024-01-10T02:04:46;21.23;;;12.88;;
53545;SDS011;39432;51.902;10.844;2024-01-10T02:07:16;21.23;;;12.43;;
53545;SDS011;39432;51.902;10.844;2024-01-10T02:09:46;19.10;;;11.43;;
53545;SDS011;39432;51.902;10.844;2024-01-10T02:12:19;18.77;;;12.43;;
53545;SDS011;39432;51.902;10.844;2024-01-10T02:14:49;22.08;;;13.38;;
53545;SDS011;39432;51.902;10.844;2024-01-10T02:17:19;23.83;;;13.15;;
53545;SDS011;39432;51.902;10.844;2024-01-10T02:19:49;17.80;;;12.82;;
53545;SDS011;39432;51.902;10.844;2024-01-10T02:22:19;28.88;;;14.90;;
53545;SDS011;39432;51.902;10.844;2024-01-10T02:24:53;23.08;;;13.45;;
53545;SDS011;39432;51.902;10.844;2024-01-10T02:27:24;19.33;;;12.63;;
53545;SDS011;39432;51.902;10.844;2024-01-10T02:29:54;21.17;;;13.80;;
53545;SDS011;39432;51.902;10.844;2024-01-10T02:32:29;21.23;;;12.82;;
53545;SDS011;39432;51.902;10.844;2024-01-10T02:34:59;21.88;;;13.93;;
53545;SDS011;39432;51.902;10.844;2024-01-10T02:37:29;28.38;;;14.10;;
53545;SDS011;39432;51.902;10.844;2024-01-10T02:40:01;25.55;;;13.32;;
53545;SDS011;39432;51.902;10.844;2024-01-10T02:42:31;23.23;;;13.23;;
53545;SDS011;39432;51.902;10.844;2024-01-10T02:45:02;17.75;;;12.73;;
53545;SDS011;39432;51.902;10.844;2024-01-10T02:47:32;20.58;;;13.10;;
53545;SDS011;39432;51.902;10.844;2024-01-10T02:50:03;19.42;;;12.43;;
53545;SDS011;39432;51.902;10.844;2024-01-10T02:52:34;20.42;;;12.93;;
53545;SDS011;39432;51.902;10.844;2024-01-10T02:55:07;20.80;;;13.93;;
53545;SDS011;39432;51.902;10.844;2024-01-10T02:57:37;18.38;;;12.18;;
53545;SDS011;39432;51.902;10.844;2024-01-10T03:00:07;21.38;;;13.68;;
53545;SDS011;39432;51.902;10.844;2024-01-10T03:02:38;23.10;;;13.25;;
53545;SDS011;39432;51.902;10.844;2024-01-10T03:05:08;19.20;;;12.13;;
53545;SDS011;39432;51.902;10.844;2024-01-10T03:07:38;21.17;;;13.73;;
53545;SDS011;39432;51.902;10.844;2024-01-10T03:10:10;19.30;;;12.55;;
53545;SDS011;39432;51.902;10.844;2024-01-10T03:12:40;20.73;;;13.27;;
53545;SDS011;39432;51.902;10.844;2024-01-10T03:15:10;19.40;;;12.40;;
53545;SDS011;39432;51.902;10.844;2024-01-10T03:17:40;22.33;;;13.10;;
53545;SDS011;39432;51.902;10.844;2024-01-10T03:20:10;24.02;;;13.23;;
53545;SDS011;39432;51.902;10.844;2024-01-10T03:22:40;21.25;;;13.25;;
53545;SDS011;39432;51.902;10.844;2024-01-10T03:25:13;24.00;;;14.18;;
53545;SDS011;39432;51.902;10.844;2024-01-10T03:27:43;21.88;;;13.55;;
53545;SDS011;39432;51.902;10.844;2024-01-10T03:30:13;19.45;;;13.02;;
53545;SDS011;39432;51.902;10.844;2024-01-10T03:32:45;21.27;;;12.60;;
53545;SDS011;39432;51.902;10.844;2024-01-10T03:35:15;20.10;;;11.95;;
53545;SDS011;39432;51.902;10.844;2024-01-10T03:37:45;20.80;;;12.98;;
53545;SDS011;39432;51.902;10.844;2024-01-10T03:40:18;23.77;;;13.82;;
53545;SDS011;39432;51.902;10.844;2024-01-10T03:42:47;21.38;;;12.77;;
53545;SDS011;39432;51.902;10.844;2024-01-10T03:45:18;20.63;;;12.57;;
53545;SDS011;39432;51.902;10.844;2024-01-10T03:47:49;21.77;;;13.70;;
53545;SDS011;39432;51.902;10.844;2024-01-10T03:50:19;20.10;;;13.05;;
53545;SDS011;39432;51.902;10.844;2024-01-10T03:52:50;19.73;;;13.63;;
53545;SDS011;39432;51.902;10.844;2024-01-10T03:55:22;18.35;;;12.77;;
53545;SDS011;39432;51.902;10.844;2024-01-10T03:57:52;24.00;;;12.50;;
53545;SDS011;39432;51.902;10.844;2024-01-10T04:00:22;25.50;;;13.68;;
53545;SDS011;39432;51.902;10.844;2024-01-10T04:02:52;26.85;;;14.90;;
53545;SDS011;39432;51.902;10.844;2024-01-10T04:05:22;20.55;;;12.85;;
53545;SDS011;39432;51.902;10.844;2024-01-10T04:07:52;21.52;;;14.00;;
53545;SDS011;39432;51.902;10.844;2024-01-10T04:10:26;20.75;;;13.75;;
53545;SDS011;39432;51.902;10.844;2024-01-10T04:12:56;21.25;;;13.60;;
53545;SDS011;39432;51.902;10.844;2024-01-10T04:15:26;22.73;;;14.20;;
53545;SDS011;39432;51.902;10.844;2024-01-10T04:17:56;25.23;;;13.77;;
53545;SDS011;39432;51.902;10.844;2024-01-10T04:20:26;19.67;;;13.10;;
53545;SDS011;39432;51.902;10.844;2024-01-10T04:22:56;22.08;;;15.20;;
53545;SDS011;39432;51.902;10.844;2024-01-10T04:25:28;25.63;;;14.48;;
53545;SDS011;39432;51.902;10.844;2024-01-10T04:27:58;19.52;;;13.13;;
53545;SDS011;39432;51.902;10.844;2024-01-10T04:30:28;19.58;;;13.02;;
53545;SDS011;39432;51.902;10.844;2024-01-10T04:32:58;23.33;;;14.82;;
53545;SDS011;39432;51.902;10.844;2024-01-10T04:35:28;23.13;;;13.85;;
53545;SDS011;39432;51.902;10.844;2024-01-10T04:37:58;28.08;;;16.17;;
53545;SDS011;39432;51.902;10.844;2024-01-10T04:40:32;43.80;;;25.17;;
53545;SDS011;39432;51.902;10.844;2024-01-10T04:43:02;24.92;;;15.68;;
53545;SDS011;39432;51.902;10.844;2024-01-10T04:45:32;25.92;;;16.20;;
53545;SDS011;39432;51.902;10.844;2024-01-10T04:48:01;18.83;;;13.02;;
53545;SDS011;39432;51.902;10.844;2024-01-10T04:50:32;22.02;;;14.27;;
53545;SDS011;39432;51.902;10.844;2024-01-10T04:53:02;23.48;;;13.65;;
53545;SDS011;39432;51.902;10.844;2024-01-10T04:55:35;18.55;;;12.43;;
53545;SDS011;39432;51.902;10.844;2024-01-10T04:58:05;20.95;;;13.38;;
53545;SDS011;39432;51.902;10.844;2024-01-10T05:00:35;26.35;;;14.98;;
53545;SDS011;39432;51.902;10.844;2024-01-10T05:03:05;23.67;;;14.20;;
53545;SDS011;39432;51.902;10.844;2024-01-10T05:05:35;21.92;;;13.23;;
53545;SDS011;39432;51.902;10.844;2024-01-10T05:08:06;22.35;;;13.27;;
53545;SDS011;39432;51.902;10.844;2024-01-10T05:10:38;28.45;;;15.38;;
53545;SDS011;39432;51.902;10.844;2024-01-10T05:13:08;24.10;;;13.40;;
53545;SDS011;39432;51.902;10.844;2024-01-10T05:15:38;19.30;;;12.90;;
53545;SDS011;39432;51.902;10.844;2024-01-10T05:18:08;25.50;;;14.57;;
53545;SDS011;39432;51.902;10.844;2024-01-10T05:20:38;22.08;;;14.15;;
53545;SDS011;39432;51.902;10.844;2024-01-10T05:23:08;25.35;;;14.75;;
53545;SDS011;39432;51.902;10.844;2024-01-10T05:25:40;28.15;;;15.32;;
53545;SDS011;39432;51.902;10.844;2024-01-10T05:28:10;22.63;;;13.80;;
53545;SDS011;39432;51.902;10.844;2024-01-10T05:30:40;25.48;;;15.00;;
53545;SDS011;39432;51.902;10.844;2024-01-10T05:33:11;22.95;;;14.15;;
53545;SDS011;39432;51.902;10.844;2024-01-10T05:35:41;24.10;;;15.10;;
53545;SDS011;39432;51.902;10.844;2024-01-10T05:38:11;24.23;;;15.05;;
53545;SDS011;39432;51.902;10.844;2024-01-10T05:40:44;31.40;;;18.50;;
53545;SDS011;39432;51.902;10.844;2024-01-10T05:43:14;30.77;;;17.27;;
53545;SDS011;39432;51.902;10.844;2024-01-10T05:45:44;26.33;;;16.35;;
53545;SDS011;39432;51.902;10.844;2024-01-10T05:48:13;22.60;;;15.23;;
53545;SDS011;39432;51.902;10.844;2024-01-10T05:50:44;20.55;;;12.95;;
53545;SDS011;39432;51.902;10.844;2024-01-10T05:53:14;25.52;;;14.98;;
53545;SDS011;39432;51.902;10.844;2024-01-10T05:55:46;22.33;;;14.35;;
53545;SDS011;39432;51.902;10.844;2024-01-10T05:58:16;28.00;;;15.50;;
53545;SDS011;39432;51.902;10.844;2024-01-10T06:00:47;27.40;;;15.60;;
53545;SDS011;39432;51.902;10.844;2024-01-10T06:03:17;20.05;;;13.55;;
53545;SDS011;39432;51.902;10.844;2024-01-10T06:05:47;23.95;;;16.13;;
53545;SDS011;39432;51.902;10.844;2024-01-10T06:08:17;22.98;;;15.05;;
53545;SDS011;39432;51.902;10.844;2024-01-10T06:10:50;24.70;;;15.43;;
53545;SDS011;39432;51.902;10.844;2024-01-10T06:13:19;27.38;;;15.48;;
53545;SDS011;39432;51.902;10.844;2024-01-10T06:15:49;23.55;;;14.88;;
53545;SDS011;39432;51.902;10.844;2024-01-10T06:18:19;31.73;;;15.25;;
53545;SDS011;39432;51.902;10.844;2024-01-10T06:20:50;20.38;;;13.73;;
53545;SDS011;39432;51.902;10.844;2024-01-10T06:23:19;22.77;;;14.65;;
53545;SDS011;39432;51.902;10.844;2024-01-10T06:25:52;21.00;;;14.25;;
53545;SDS011;39432;51.902;10.844;2024-01-10T06:28:23;22.95;;;15.32;;
53545;SDS011;39432;51.902;10.844;2024-01-10T06:30:53;26.48;;;15.90;;
53545;SDS011;39432;51.902;10.844;2024-01-10T06:33:23;26.45;;;16.20;;
53545;SDS011;39432;51.902;10.844;2024-01-10T06:35:54;23.92;;;15.43;;
53545;SDS011;39432;51.902;10.844;2024-01-10T06:38:24;31.27;;;16.23;;
53545;SDS011;39432;51.902;10.844;2024-01-10T06:40:56;24.95;;;15.85;;
53545;SDS011;39432;51.902;10.844;2024-01-10T06:43:26;27.83;;;16.27;;
53545;SDS011;39432;51.902;10.844;2024-01-10T06:45:56;26.55;;;16.15;;
53545;SDS011;39432;51.902;10.844;2024-01-10T06:48:26;27.88;;;14.95;;
53545;SDS011;39432;51.902;10.844;2024-01-10T06:50:56;29.48;;;17.50;;
53545;SDS011;39432;51.902;10.844;2024-01-10T06:53:26;26.38;;;15.95;;
53545;SDS011;39432;51.902;10.844;2024-01-10T06:55:59;21.70;;;14.35;;
53545;SDS011;39432;51.902;10.844;2024-01-10T06:58:28;27.35;;;18.05;;
53545;SDS011;39432;51.902;10.844;2024-01-10T07:00:58;26.77;;;17.52;;
53545;SDS011;39432;51.902;10.844;2024-01-10T07:03:31;28.85;;;16.52;;
53545;SDS011;39432;51.902;10.844;2024-01-10T07:06:01;29.27;;;16.83;;
53545;SDS011;39432;51.902;10.844;2024-01-10T07:08:31;28.48;;;16.75;;
53545;SDS011;39432;51.902;10.844;2024-01-10T07:11:04;24.40;;;16.10;;
53545;SDS011;39432;51.902;10.844;2024-01-10T07:13:34;33.70;;;17.70;;
53545;SDS011;39432;51.902;10.844;2024-01-10T07:16:04;27.30;;;16.02;;
53545;SDS011;39432;51.902;10.844;2024-01-10T07:18:34;27.13;;;17.00;;
53545;SDS011;39432;51.902;10.844;2024-01-10T07:21:04;30.60;;;17.08;;
53545;SDS011;39432;51.902;10.844;2024-01-10T07:23:36;33.33;;;16.58;;
53545;SDS011;39432;51.902;10.844;2024-01-10T07:26:12;32.65;;;18.45;;
53545;SDS011;39432;51.902;10.844;2024-01-10T07:28:43;31.48;;;17.48;;
53545;SDS011;39432;51.902;10.844;2024-01-10T07:31:13;38.88;;;16.58;;
53545;SDS011;39432;51.902;10.844;2024-01-10T07:33:43;35.60;;;17.83;;
53545;SDS011;39432;51.902;10.844;2024-01-10T07:36:13;33.13;;;18.90;;
53545;SDS011;39432;51.902;10.844;2024-01-10T07:38:44;27.42;;;17.10;;
53545;SDS011;39432;51.902;10.844;2024-01-10T07:41:17;27.75;;;17.00;;
53545;SDS011;39432;51.902;10.844;2024-01-10T07:43:47;28.60;;;15.55;;
53545;SDS011;39432;51.902;10.844;2024-01-10T07:46:17;26.25;;;15.25;;
53545;SDS011;39432;51.902;10.844;2024-01-10T07:48:47;30.65;;;17.50;;
53545;SDS011;39432;51.902;10.844;2024-01-10T07:51:18;26.27;;;14.38;;
53545;SDS011;39432;51.902;10.844;2024-01-10T07:53:49;27.75;;;16.98;;
53545;SDS011;39432;51.902;10.844;2024-01-10T07:56:22;32.53;;;17.65;;
53545;SDS011;39432;51.902;10.844;2024-01-10T07:58:52;24.08;;;15.40;;
53545;SDS011;39432;51.902;10.844;2024-01-10T08:01:22;30.27;;;15.43;;
53545;SDS011;39432;51.902;10.844;2024-01-10T08:03:52;25.88;;;16.15;;
53545;SDS011;39432;51.902;10.844;2024-01-10T08:06:22;32.35;;;15.48;;
53545;SDS011;39432;51.902;10.844;2024-01-10T08:08:59;32.35;;;16.83;;
53545;SDS011;39432;51.902;10.844;2024-01-10T08:11:34;27.95;;;16.45;;
53545;SDS011;39432;51.902;10.844;2024-01-10T08:14:04;28.42;;;16.65;;
53545;SDS011;39432;51.902;10.844;2024-01-10T08:16:33;37.58;;;18.80;;
53545;SDS011;39432;51.902;10.844;2024-01-10T08:19:03;25.80;;;16.38;;
53545;SDS011;39432;51.902;10.844;2024-01-10T08:21:33;29.85;;;17.77;;
53545;SDS011;39432;51.902;10.844;2024-01-10T08:24:04;34.88;;;17.52;;
53545;SDS011;39432;51.902;10.844;2024-01-10T08:26:37;25.58;;;16.25;;
53545;SDS011;39432;51.902;10.844;2024-01-10T08:29:07;27.45;;;18.02;;
53545;SDS011;39432;51.902;10.844;2024-01-10T08:31:37;27.90;;;17.40;;
53545;SDS011;39432;51.902;10.844;2024-01-10T08:34:07;30.50;;;18.05;;
53545;SDS011;39432;51.902;10.844;2024-01-10T08:36:37;30.80;;;18.17;;
53545;SDS011;39432;51.902;10.844;2024-01-10T08:39:07;34.95;;;18.48;;
53545;SDS011;39432;51.902;10.844;2024-01-10T08:41:40;31.80;;;19.30;;
53545;SDS011;39432;51.902;10.844;2024-01-10T08:44:11;34.83;;;20.33;;
53545;SDS011;39432;51.902;10.844;2024-01-10T08:46:41;29.45;;;18.92;;
53545;SDS011;39432;51.902;10.844;2024-01-10T08:49:11;36.55;;;18.90;;
53545;SDS011;39432;51.902;10.844;2024-01-10T08:51:41;35.58;;;21.00;;
53545;SDS011;39432;51.902;10.844;2024-01-10T08:54:13;37.92;;;19.05;;
53545;SDS011;39432;51.902;10.844;2024-01-10T08:56:49;31.55;;;19.10;;
53545;SDS011;39432;51.902;10.844;2024-01-10T08:59:19;38.53;;;19.77;;
53545;SDS011;39432;51.902;10.844;2024-01-10T09:01:49;34.17;;;18.70;;
53545;SDS011;39432;51.902;10.844;2024-01-10T09:04:19;30.23;;;18.63;;
53545;SDS011;39432;51.902;10.844;2024-01-10T09:06:49;27.30;;;18.05;;
53545;SDS011;39432;51.902;10.844;2024-01-10T09:09:17;35.05;;;19.13;;
53545;SDS011;39432;51.902;10.844;2024-01-10T09:11:50;37.58;;;21.98;;
53545;SDS011;39432;51.902;10.844;2024-01-10T09:14:20;31.45;;;20.33;;
53545;SDS011;39432;51.902;10.844;2024-01-10T09:16:50;31.27;;;20.27;;
53545;SDS011;39432;51.902;10.844;2024-01-10T09:19:21;37.25;;;22.05;;
53545;SDS011;39432;51.902;10.844;2024-01-10T09:21:51;31.40;;;19.80;;
53545;SDS011;39432;51.902;10.844;2024-01-10T09:24:21;33.00;;;21.65;;
53545;SDS011;39432;51.902;10.844;2024-01-10T09:26:58;33.03;;;22.33;;
53545;SDS011;39432;51.902;10.844;2024-01-10T09:29:28;31.95;;;19.90;;
53545;SDS011;39432;51.902;10.844;2024-01-10T09:31:58;32.78;;;20.48;;
53545;SDS011;39432;51.902;10.844;2024-01-10T09:34:28;31.15;;;19.75;;
53545;SDS011;39432;51.902;10.844;2024-01-10T09:36:59;32.45;;;20.38;;
53545;SDS011;39432;51.902;10.844;2024-01-10T09:39:29;33.53;;;21.40;;
53545;SDS011;39432;51.902;10.844;2024-01-10T09:42:01;38.63;;;23.50;;
53545;SDS011;39432;51.902;10.844;2024-01-10T09:44:33;35.55;;;21.50;;
53545;SDS011;39432;51.902;10.844;2024-01-10T09:47:03;30.08;;;20.48;;
53545;SDS011;39432;51.902;10.844;2024-01-10T09:49:33;34.55;;;21.15;;
53545;SDS011;39432;51.902;10.844;2024-01-10T09:52:04;36.03;;;22.38;;
53545;SDS011;39432;51.902;10.844;2024-01-10T09:54:40;37.28;;;22.10;;
53545;SDS011;39432;51.902;10.844;2024-01-10T09:57:16;34.20;;;20.88;;
53545;SDS011;39432;51.902;10.844;2024-01-10T09:59:47;34.85;;;21.45;;
53545;SDS011;39432;51.902;10.844;2024-01-10T10:02:18;43.75;;;22.92;;
53545;SDS011;39432;51.902;10.844;2024-01-10T10:04:51;36.50;;;22.75;;
53545;SDS011;39432;51.902;10.844;2024-01-10T10:07:24;39.97;;;24.65;;
53545;SDS011;39432;51.902;10.844;2024-01-10T10:09:54;42.08;;;26.38;;
53545;SDS011;39432;51.902;10.844;2024-01-10T10:15:18;34.45;;;20.40;;
53545;SDS011;39432;51.902;10.844;2024-01-10T10:17:49;43.65;;;27.10;;
53545;SDS011;39432;51.902;10.844;2024-01-10T10:20:21;36.70;;;22.50;;
53545;SDS011;39432;51.902;10.844;2024-01-10T10:22:59;37.88;;;22.27;;
53545;SDS011;39432;51.902;10.844;2024-01-10T10:25:31;40.67;;;22.38;;
53545;SDS011;39432;51.902;10.844;2024-01-10T10:28:04;40.42;;;23.80;;
53545;SDS011;39432;51.902;10.844;2024-01-10T10:30:44;55.38;;;22.70;;
53545;SDS011;39432;51.902;10.844;2024-01-10T10:33:15;37.90;;;22.77;;
53545;SDS011;39432;51.902;10.844;2024-01-10T10:35:49;37.10;;;24.35;;
53545;SDS011;39432;51.902;10.844;2024-01-10T10:38:21;40.75;;;22.50;;
53545;SDS011;39432;51.902;10.844;2024-01-10T10:40:51;47.58;;;25.23;;
53545;SDS011;39432;51.902;10.844;2024-01-10T10:43:25;33.22;;;21.77;;
53545;SDS011;39432;51.902;10.844;2024-01-10T10:45:57;42.75;;;24.05;;
53545;SDS011;39432;51.902;10.844;2024-01-10T10:48:28;40.25;;;25.20;;
53545;SDS011;39432;51.902;10.844;2024-01-10T10:51:03;32.85;;;20.05;;
53545;SDS011;39432;51.902;10.844;2024-01-10T10:53:37;35.53;;;21.88;;
53545;SDS011;39432;51.902;10.844;2024-01-10T10:56:08;39.92;;;22.15;;
53545;SDS011;39432;51.902;10.844;2024-01-10T10:58:42;39.33;;;22.58;;
53545;SDS011;39432;51.902;10.844;2024-01-10T11:01:13;40.85;;;22.85;;
53545;SDS011;39432;51.902;10.844;2024-01-10T11:03:43;34.85;;;21.65;;
53545;SDS011;39432;51.902;10.844;2024-01-10T11:06:14;39.70;;;22.75;;
53545;SDS011;39432;51.902;10.844;2024-01-10T11:08:49;41.38;;;23.30;;
53545;SDS011;39432;51.902;10.844;2024-01-10T11:11:26;36.28;;;23.25;;
53545;SDS011;39432;51.902;10.844;2024-01-10T11:14:13;40.15;;;24.75;;
53545;SDS011;39432;51.902;10.844;2024-01-10T11:22:53;37.63;;;22.73;;
53545;SDS011;39432;51.902;10.844;2024-01-10T11:25:41;40.30;;;23.13;;
53545;SDS011;39432;51.902;10.844;2024-01-10T11:28:12;41.38;;;22.13;;
53545;SDS011;39432;51.902;10.844;2024-01-10T11:30:50;37.20;;;23.73;;
53545;SDS011;39432;51.902;10.844;2024-01-10T11:33:24;38.15;;;23.45;;
53545;SDS011;39432;51.902;10.844;2024-01-10T11:36:11;39.17;;;23.13;;
53545;SDS011;39432;51.902;10.844;2024-01-10T11:38:44;35.38;;;23.02;;
53545;SDS011;39432;51.902;10.844;2024-01-10T11:41:21;41.80;;;24.67;;
53545;SDS011;39432;51.902;10.844;2024-01-10T11:46:55;36.80;;;21.35;;
53545;SDS011;39432;51.902;10.844;2024-01-10T11:49:26;38.53;;;22.58;;
53545;SDS011;39432;51.902;10.844;2024-01-10T11:51:56;45.83;;;24.70;;
53545;SDS011;39432;51.902;10.844;2024-01-10T11:54:35;39.15;;;24.38;;
53545;SDS011;39432;51.902;10.844;2024-01-10T11:57:10;40.22;;;24.23;;
53545;SDS011;39432;51.902;10.844;2024-01-10T11:59:41;36.17;;;22.73;;
53545;SDS011;39432;51.902;10.844;2024-01-10T12:02:13;38.92;;;24.92;;
53545;SDS011;39432;51.902;10.844;2024-01-10T12:04:44;44.45;;;24.23;;
53545;SDS011;39432;51.902;10.844;2024-01-10T12:07:15;38.80;;;21.90;;
53545;SDS011;39432;51.902;10.844;2024-01-10T12:09:47;37.88;;;23.42;;
53545;SDS011;39432;51.902;10.844;2024-01-10T12:12:17;38.72;;;23.70;;
53545;SDS011;39432;51.902;10.844;2024-01-10T12:14:47;38.45;;;24.00;;
53545;SDS011;39432;51.902;10.844;2024-01-10T12:17:20;38.88;;;23.33;;
53545;SDS011;39432;51.902;10.844;2024-01-10T12:19:50;37.78;;;22.58;;
53545;SDS011;39432;51.902;10.844;2024-01-10T12:22:20;44.05;;;25.17;;
53545;SDS011;39432;51.902;10.844;2024-01-10T12:24:50;39.85;;;24.13;;
53545;SDS011;39432;51.902;10.844;2024-01-10T12:27:20;48.08;;;22.20;;
53545;SDS011;39432;51.902;10.844;2024-01-10T12:29:51;37.75;;;23.38;;
53545;SDS011;39432;51.902;10.844;2024-01-10T12:32:24;37.60;;;23.05;;
53545;SDS011;39432;51.902;10.844;2024-01-10T12:34:57;38.53;;;23.08;;
53545;SDS011;39432;51.902;10.844;2024-01-10T12:37:30;31.10;;;18.70;;
53545;SDS011;39432;51.902;10.844;2024-01-10T12:40:00;35.38;;;22.17;;
53545;SDS011;39432;51.902;10.844;2024-01-10T12:42:36;38.97;;;22.30;;
53545;SDS011;39432;51.902;10.844;2024-01-10T12:45:19;38.03;;;22.40;;
53545;SDS011;39432;51.902;10.844;2024-01-10T12:47:52;40.17;;;23.73;;
53545;SDS011;39432;51.902;10.844;2024-01-10T12:50:22;38.15;;;22.98;;
53545;SDS011;39432;51.902;10.844;2024-01-10T12:52:53;88.22;;;25.90;;
53545;SDS011;39432;51.902;10.844;2024-01-10T12:55:25;42.10;;;24.63;;
53545;SDS011;39432;51.902;10.844;2024-01-10T12:57:55;42.75;;;25.05;;
53545;SDS011;39432;51.902;10.844;2024-01-10T13:00:33;37.53;;;23.08;;
53545;SDS011;39432;51.902;10.844;2024-01-10T13:03:06;34.63;;;22.25;;
53545;SDS011;39432;51.902;10.844;2024-01-10T13:05:36;42.97;;;22.90;;
53545;SDS011;39432;51.902;10.844;2024-01-10T13:08:07;35.63;;;22.17;;
53545;SDS011;39432;51.902;10.844;2024-01-10T13:10:38;42.90;;;22.65;;
53545;SDS011;39432;51.902;10.844;2024-01-10T13:13:08;39.83;;;23.15;;
53545;SDS011;39432;51.902;10.844;2024-01-10T13:15:38;35.70;;;21.92;;
53545;SDS011;39432;51.902;10.844;2024-01-10T13:18:11;35.28;;;22.48;;
53545;SDS011;39432;51.902;10.844;2024-01-10T13:20:43;41.83;;;24.25;;
53545;SDS011;39432;51.902;10.844;2024-01-10T13:23:14;33.20;;;21.65;;
53545;SDS011;39432;51.902;10.844;2024-01-10T13:25:45;41.20;;;24.92;;
53545;SDS011;39432;51.902;10.844;2024-01-10T13:28:15;40.97;;;23.15;;
53545;SDS011;39432;51.902;10.844;2024-01-10T13:30:45;38.67;;;23.55;;
53545;SDS011;39432;51.902;10.844;2024-01-10T13:33:20;39.00;;;23.10;;
53545;SDS011;39432;51.902;10.844;2024-01-10T13:35:50;39.08;;;23.95;;
53545;SDS011;39432;51.902;10.844;2024-01-10T13:38:20;52.22;;;25.77;;
53545;SDS011;39432;51.902;10.844;2024-01-10T13:40:51;43.47;;;23.85;;
53545;SDS011;39432;51.902;10.844;2024-01-10T13:43:21;34.95;;;21.92;;
53545;SDS011;39432;51.902;10.844;2024-01-10T13:45:51;39.17;;;24.27;;
53545;SDS011;39432;51.902;10.844;2024-01-10T13:48:24;42.78;;;24.35;;
53545;SDS011;39432;51.902;10.844;2024-01-10T13:50:56;39.75;;;23.20;;
53545;SDS011;39432;51.902;10.844;2024-01-10T13:53:27;36.50;;;22.65;;
53545;SDS011;39432;51.902;10.844;2024-01-10T13:55:58;34.33;;;22.38;;
53545;SDS011;39432;51.902;10.844;2024-01-10T13:58:28;40.95;;;23.23;;
53545;SDS011;39432;51.902;10.844;2024-01-10T14:00:58;35.67;;;22.75;;
53545;SDS011;39432;51.902;10.844;2024-01-10T14:03:31;35.13;;;22.40;;
53545;SDS011;39432;51.902;10.844;2024-01-10T14:06:01;37.58;;;23.05;;
53545;SDS011;39432;51.902;10.844;2024-01-10T14:08:31;35.75;;;24.05;;
53545;SDS011;39432;51.902;10.844;2024-01-10T14:11:04;35.42;;;22.60;;
53545;SDS011;39432;51.902;10.844;2024-01-10T14:13:34;40.72;;;24.48;;
53545;SDS011;39432;51.902;10.844;2024-01-10T14:16:04;36.13;;;23.02;;
53545;SDS011;39432;51.902;10.844;2024-01-10T14:18:37;46.50;;;25.48;;
53545;SDS011;39432;51.902;10.844;2024-01-10T14:21:07;40.92;;;25.60;;
53545;SDS011;39432;51.902;10.844;2024-01-10T14:23:37;43.08;;;26.15;;
53545;SDS011;39432;51.902;10.844;2024-01-10T14:26:08;47.88;;;26.80;;
53545;SDS011;39432;51.902;10.844;2024-01-10T14:28:37;44.97;;;26.52;;
53545;SDS011;39432;51.902;10.844;2024-01-10T14:31:07;42.33;;;26.02;;
53545;SDS011;39432;51.902;10.844;2024-01-10T14:33:57;39.00;;;24.45;;
53545;SDS011;39432;51.902;10.844;2024-01-10T14:36:30;40.60;;;24.65;;
53545;SDS011;39432;51.902;10.844;2024-01-10T14:39:00;41.88;;;24.98;;
53545;SDS011;39432;51.902;10.844;2024-01-10T14:41:31;37.60;;;24.95;;
53545;SDS011;39432;51.902;10.844;2024-01-10T14:44:01;38.28;;;25.90;;